Stone Cabin, Nevada Weather observations

Data are for observation ending at time listed.
 Day   Time    Ave.   Ave.  Ave.  Vector   Max.   Stn.    Total    Solar   Ave.  
  of    of     Air    Rel.  Wind   Wind    Wind   Baro.  Precip.   Rad.    Soil  
Year   Day     Temp.  Hum.  Speed  Dir.    Gust   Pres.                    Temp. 
2014   (PST)    F      %     mph   deg.    mph     mb.     in.     W/m2     F   
------------------------------------------------------------------------------
 213    0:00   63.0    59    1.0   303      3.3    824     0.00       0    68.0
 213    1:00   59.1    70    0.7   259      2.9    825     0.00       0    67.2
 213    2:00   56.9    75    1.0   355      3.2    825     0.00       0    66.5
 213    3:00   56.6    73    2.2   294      5.6    818     0.00       0    65.9
 213    4:00   55.4    76    0.9   255      4.4    816     0.00       0    65.2
 213    5:00   53.1    79    0.8   235      3.1    822     0.00       2    64.7
 213    6:00   54.1    77    1.5   277      3.5    819     0.00      17    64.1
 213    7:00   62.1    62    0.3    13      3.4    819     0.00     161    63.8
 213    8:00   75.0    40    0.3   160      2.2    819     0.00     468    64.4
 213    9:00   79.1    32    0.8    76      3.7    821     0.00     668    66.2
 213   10:00   82.5    27    1.1   114      4.3    822     0.00     832    68.9
 213   11:00   84.5    26    2.2   105      7.9    824     0.00     944    72.9
 213   12:00   86.3    23    2.0   135      7.6    824     0.00     999    76.9
 213   13:00   87.1    21    2.3   129      9.8    824     0.00     887    78.6
 213   14:00   87.2    19    4.4   192     15.9    824     0.00     524    77.0
 213   15:00   86.6    19    4.8   178     15.1    823     0.00     417    76.3
 213   16:00   76.9    38    3.6   140     10.4    823     0.05      28    75.2
 213   17:00   68.8    60    2.1    23      8.0    821     0.00      74    73.4
 213   18:00   67.3    64    2.2    10     11.0    821     0.00      56    72.2
 213   19:00   65.5    60    3.4    23     13.4    823     0.04      19    71.2
 213   20:00   64.2    64    5.0    33     11.1    825     0.00       0    70.1
 213   21:00   62.0    76    3.3   322     14.2    826     0.04       0    69.2
 213   22:00   63.2    65    6.0    29     18.2    820     0.01       0    68.5

Return to Stone Cabin, Nevada graphs page.


Western Regional Climate Center,wrcc@dri.edu